Time;durP1;ratioP1;P1;durP2;ratioP2;P2;SDS_P1;SDS_P2;PMS_P1;PMS_P2;Temp;Humidity;BMP_temperature;BMP_pressure;BME280_temperature;BME280_humidity;BME280_pressure;Samples;Min_cycle;Max_cycle;Signal;HPM_P1;HPM_P2
2021/05/28 00:00:31;;;;;;;7.50;4.85;;;;;;;23.22;53.12;94723.06;4949954;29;20024;-68
2021/05/28 00:02:57;;;;;;;7.45;5.30;;;;;;;23.20;53.00;94720.16;4949834;29;20062;-66
2021/05/28 00:05:22;;;;;;;7.13;5.18;;;;;;;23.17;52.63;94710.28;4932659;29;20031;-66
2021/05/28 00:07:48;;;;;;;6.60;4.90;;;;;;;23.15;52.80;94701.88;4949740;29;20035;-68
2021/05/28 00:10:14;;;;;;;7.32;5.10;;;;;;;23.12;52.74;94702.91;4950078;29;20054;-67
2021/05/28 00:12:39;;;;;;;7.10;4.97;;;;;;;23.07;53.17;94706.44;4949853;29;20038;-66
2021/05/28 00:15:07;;;;;;;7.95;4.80;;;;;;;23.07;53.23;94706.44;4950012;29;20039;-67
2021/05/28 00:17:32;;;;;;;8.45;4.82;;;;;;;23.06;53.10;94707.69;4949759;29;21061;-67
2021/05/28 00:19:58;;;;;;;8.18;4.95;;;;;;;23.07;53.18;94706.44;4949761;29;20030;-67
2021/05/28 00:22:23;;;;;;;6.82;4.93;;;;;;;23.04;53.09;94707.47;4950069;29;20054;-67
2021/05/28 00:24:49;;;;;;;7.03;5.03;;;;;;;23.05;53.29;94703.50;4950274;29;20034;-67
2021/05/28 00:27:14;;;;;;;6.35;4.97;;;;;;;23.03;52.96;94689.66;4932875;29;20035;-66
2021/05/28 00:29:40;;;;;;;8.85;5.72;;;;;;;22.99;53.07;94681.03;4932997;29;20095;-66
2021/05/28 00:32:05;;;;;;;6.07;4.95;;;;;;;22.97;53.37;94669.19;4949420;29;20027;-68
2021/05/28 00:34:31;;;;;;;6.80;5.03;;;;;;;22.93;53.32;94658.59;4949333;29;20050;-67
2021/05/28 00:36:56;;;;;;;8.43;5.18;;;;;;;22.90;53.37;94648.69;4949870;29;20031;-66
2021/05/28 00:39:22;;;;;;;6.90;5.82;;;;;;;22.86;53.50;94657.69;4949956;29;20019;-67
2021/05/28 00:41:47;;;;;;;7.57;5.65;;;;;;;22.86;53.59;94657.69;4952043;28;20027;-67
2021/05/28 00:44:12;;;;;;;6.75;5.18;;;;;;;22.83;53.54;94664.88;4953749;29;20046;-67
2021/05/28 00:46:38;;;;;;;6.88;5.03;;;;;;;22.84;53.51;94668.31;4936068;29;20049;-67
2021/05/28 00:49:03;;;;;;;7.95;5.10;;;;;;;22.72;53.02;94653.38;4935555;29;20114;-67
2021/05/28 00:51:29;;;;;;;7.20;5.28;;;;;;;22.79;53.56;94658.25;4918994;29;20032;-68
2021/05/28 00:53:54;;;;;;;8.20;5.55;;;;;;;22.77;53.42;94661.47;4929436;29;20032;-68
2021/05/28 00:56:20;;;;;;;6.10;4.68;;;;;;;22.76;53.20;94653.84;4898189;29;20527;-68
2021/05/28 00:58:46;;;;;;;6.70;5.00;;;;;;;22.73;53.02;94655.59;4898046;29;20027;-67
2021/05/28 01:01:12;;;;;;;7.88;5.05;;;;;;;22.73;53.53;94649.41;4897998;29;20032;-67
2021/05/28 01:03:37;;;;;;;7.72;5.00;;;;;;;22.73;53.32;94649.41;4914882;29;20051;-66
2021/05/28 01:06:03;;;;;;;7.18;4.93;;;;;;;22.71;53.32;94651.91;4914469;29;20795;-67
2021/05/28 01:08:30;;;;;;;6.43;5.05;;;;;;;22.69;53.35;94648.97;4914689;29;20427;-67
2021/05/28 01:10:55;;;;;;;14.65;5.28;;;;;;;22.70;53.51;94650.44;4897721;29;20087;-67
2021/05/28 01:13:20;;;;;;;9.68;4.75;;;;;;;22.68;53.44;94650.22;4898107;29;20032;-67
2021/05/28 01:15:46;;;;;;;7.13;5.25;;;;;;;22.68;53.24;94652.94;4897613;29;20119;-67
2021/05/28 01:18:12;;;;;;;7.03;5.22;;;;;;;22.65;53.42;94649.25;4914500;29;20046;-68
2021/05/28 01:20:37;;;;;;;9.05;5.38;;;;;;;22.63;53.63;94645.56;4897553;29;20045;-67
2021/05/28 01:23:03;;;;;;;8.27;5.50;;;;;;;22.62;53.69;94649.56;4914498;29;20036;-68
2021/05/28 01:25:28;;;;;;;5.63;4.95;;;;;;;22.59;53.79;94661.47;4914625;29;20040;-68
2021/05/28 01:27:54;;;;;;;7.70;4.97;;;;;;;22.59;53.90;94656.03;4914116;29;20028;-66
2021/05/28 01:30:20;;;;;;;7.97;5.35;;;;;;;22.56;53.42;94673.38;4913328;29;20032;-67
2021/05/28 01:32:46;;;;;;;6.55;5.57;;;;;;;22.50;53.54;94659.09;4914429;29;20031;-67
2021/05/28 01:35:13;;;;;;;8.68;5.63;;;;;;;22.48;53.52;94650.69;4914384;29;20024;-69
2021/05/28 01:37:38;;;;;;;7.10;6.28;;;;;;;22.45;54.05;94649.75;4913917;29;20043;-66
2021/05/28 01:40:05;;;;;;;8.90;6.15;;;;;;;22.49;53.63;94650.16;4913889;29;20172;-68
2021/05/28 01:42:31;;;;;;;11.13;7.20;;;;;;;22.48;53.98;94656.13;4913958;29;20110;-67
2021/05/28 01:44:58;;;;;;;9.20;6.75;;;;;;;22.46;54.15;94643.03;4914164;29;20028;-67
2021/05/28 01:47:24;;;;;;;8.45;6.88;;;;;;;22.45;53.43;94641.59;4913986;29;20493;-67
2021/05/28 01:49:49;;;;;;;10.13;7.93;;;;;;;22.46;53.78;94645.03;4896966;29;20039;-67
2021/05/28 01:52:15;;;;;;;9.20;7.10;;;;;;;22.44;53.37;94644.81;4896642;29;20556;-67
2021/05/28 01:54:40;;;;;;;9.00;6.50;;;;;;;22.42;53.83;94639.16;4913761;29;20040;-66
2021/05/28 01:57:09;;;;;;;11.80;6.43;;;;;;;22.42;53.91;94631.00;4913841;29;20035;-68
2021/05/28 01:59:35;;;;;;;6.97;5.68;;;;;;;22.42;53.20;94625.56;4896763;29;20141;-66
2021/05/28 02:02:00;;;;;;;6.93;6.10;;;;;;;22.42;53.57;94626.28;4913570;29;20065;-67
2021/05/28 02:04:25;;;;;;;7.85;6.68;;;;;;;22.40;53.43;94628.03;4913536;29;20040;-67
2021/05/28 02:06:51;;;;;;;8.43;6.40;;;;;;;22.37;53.40;94629.06;4913704;29;20028;-68
2021/05/28 02:09:16;;;;;;;6.85;6.07;;;;;;;22.39;53.28;94626.56;4913338;29;20417;-67
2021/05/28 02:11:42;;;;;;;8.63;5.97;;;;;;;22.37;53.25;94631.78;4896577;29;20039;-67
2021/05/28 02:14:07;;;;;;;7.13;5.60;;;;;;;22.33;53.78;94623.19;4913690;29;20031;-66
2021/05/28 02:16:33;;;;;;;7.10;5.75;;;;;;;22.31;53.93;94622.94;4913125;29;20040;-68
2021/05/28 02:18:59;;;;;;;7.78;5.00;;;;;;;22.32;53.41;94621.69;4913556;29;20576;-67
2021/05/28 02:21:24;;;;;;;6.30;5.28;;;;;;;22.32;53.62;94627.13;4913244;29;20036;-67
2021/05/28 02:23:50;;;;;;;6.28;5.35;;;;;;;22.31;53.47;94609.34;4913781;29;20091;-68
2021/05/28 02:26:15;;;;;;;6.28;5.10;;;;;;;22.32;54.05;94604.66;4913092;29;20039;-67
2021/05/28 02:28:41;;;;;;;9.15;5.80;;;;;;;22.31;54.09;94609.34;4916937;29;20039;-68
2021/05/28 02:31:06;;;;;;;7.53;6.00;;;;;;;22.28;53.54;94604.91;4951443;29;20132;-68
2021/05/28 02:33:31;;;;;;;8.23;5.10;;;;;;;22.30;54.08;94604.41;4950947;29;20039;-68
2021/05/28 02:35:59;;;;;;;8.68;5.38;;;;;;;22.27;53.86;94598.03;4951114;29;20455;-67
2021/05/28 02:38:24;;;;;;;6.07;4.97;;;;;;;22.27;53.90;94598.03;4931497;29;20174;-67
2021/05/28 02:40:49;;;;;;;8.52;5.30;;;;;;;22.25;54.11;94605.94;4932511;29;20032;-67
2021/05/28 02:43:15;;;;;;;8.00;5.50;;;;;;;22.23;54.49;94608.44;4931968;29;20027;-68
2021/05/28 02:45:40;;;;;;;10.30;5.53;;;;;;;22.23;54.03;94613.88;4931787;29;20038;-68
2021/05/28 02:48:06;;;;;;;6.65;4.97;;;;;;;22.23;54.07;94619.31;4914806;29;20032;-68
2021/05/28 02:50:32;;;;;;;8.38;5.63;;;;;;;22.22;54.40;94634.16;4913151;29;20028;-68
2021/05/28 02:53:00;;;;;;;6.60;5.10;;;;;;;22.22;54.79;94628.00;4913345;29;20060;-68
2021/05/28 02:55:26;;;;;;;9.10;5.35;;;;;;;22.22;54.70;94623.28;4913169;29;20028;-67
2021/05/28 02:57:52;;;;;;;6.70;5.10;;;;;;;22.08;54.14;94602.63;4912852;29;20688;-67
2021/05/28 03:00:17;;;;;;;6.60;5.25;;;;;;;22.20;54.82;94625.03;4912661;29;20107;-66
2021/05/28 03:02:43;;;;;;;13.30;5.40;;;;;;;22.18;54.28;94644.56;4880187;29;20035;-67
2021/05/28 03:05:09;;;;;;;7.78;5.18;;;;;;;22.17;54.56;94637.66;4933740;29;20027;-68
2021/05/28 03:07:34;;;;;;;6.82;5.35;;;;;;;22.17;54.59;94636.94;4950583;29;20050;-68
2021/05/28 03:09:59;;;;;;;7.53;4.72;;;;;;;22.16;54.63;94647.03;4950777;29;20038;-68
2021/05/28 03:12:25;;;;;;;6.63;5.03;;;;;;;22.17;54.30;94648.53;4933611;29;20419;-66
2021/05/28 03:14:50;;;;;;;7.97;5.20;;;;;;;22.15;54.53;94651.03;4950454;29;20495;-67
2021/05/28 03:17:16;;;;;;;9.95;5.00;;;;;;;22.14;54.20;94665.88;4950318;29;20078;-66
2021/05/28 03:19:44;;;;;;;7.18;5.18;;;;;;;22.12;54.93;94649.31;4950117;29;20034;-66
2021/05/28 03:24:58;;;;;;;10.50;5.07;;;;;;;22.08;54.81;94629.09;4950474;29;20097;-66
2021/05/28 03:27:23;;;;;;;8.20;5.45;;;;;;;22.14;54.79;94644.09;4950512;29;20031;-67
2021/05/28 03:29:49;;;;;;;6.88;4.78;;;;;;;22.05;55.08;94630.84;4933136;29;20043;-66
2021/05/28 03:32:14;;;;;;;8.00;5.20;;;;;;;22.13;54.63;94637.19;4950185;29;20054;-67
2021/05/28 03:34:40;;;;;;;6.80;4.43;;;;;;;22.17;55.01;94642.38;4950295;29;20423;-66
2021/05/28 03:37:05;;;;;;;8.23;4.82;;;;;;;22.15;55.33;94640.16;4950160;29;20042;-67
2021/05/28 03:39:31;;;;;;;7.45;5.30;;;;;;;22.16;55.39;94657.94;4950313;29;20055;-67
2021/05/28 03:41:56;;;;;;;9.05;4.90;;;;;;;22.15;55.43;94678.22;4950093;29;20042;-67
2021/05/28 03:44:22;;;;;;;7.57;4.97;;;;;;;22.15;55.22;94689.09;4950309;29;20034;-66
2021/05/28 03:46:47;;;;;;;6.13;5.20;;;;;;;22.12;55.65;94690.13;4950140;29;20541;-67
2021/05/28 03:49:13;;;;;;;7.28;5.07;;;;;;;22.13;55.68;94691.56;4950152;29;20653;-67
2021/05/28 03:51:38;;;;;;;7.57;5.50;;;;;;;22.13;55.14;94690.84;4950004;29;20026;-67
2021/05/28 03:54:04;;;;;;;10.52;4.57;;;;;;;22.13;55.63;94696.28;4950088;29;20034;-66
2021/05/28 03:56:29;;;;;;;9.07;5.00;;;;;;;22.14;55.77;94701.22;4950093;29;20031;-66
2021/05/28 03:58:55;;;;;;;9.75;5.30;;;;;;;22.09;55.37;94680.25;4950076;29;20368;-70
2021/05/28 04:01:20;;;;;;;8.98;5.22;;;;;;;22.19;55.15;94700.41;4911396;29;20504;-70
2021/05/28 04:03:46;;;;;;;7.93;5.50;;;;;;;22.22;54.96;94694.00;4907709;29;20048;-68
2021/05/28 04:06:11;;;;;;;11.02;5.88;;;;;;;22.23;55.30;94690.03;4944258;29;20034;-68
2021/05/28 04:08:36;;;;;;;8.57;5.38;;;;;;;22.14;55.35;94682.19;4933529;29;20459;-72
2021/05/28 04:11:02;;;;;;;10.50;5.28;;;;;;;22.21;55.38;94676.22;4910485;29;20121;-74
2021/05/28 04:13:31;;;;;;;6.47;4.45;;;;;;;22.30;55.48;94675.13;4933419;29;20039;-73
2021/05/28 04:15:58;;;;;;;7.10;4.40;;;;;;;22.41;55.53;94667.59;4944918;29;20046;-70
2021/05/28 04:18:23;;;;;;;6.90;4.35;;;;;;;22.51;55.40;94657.81;4936082;29;20677;-72
2021/05/28 04:20:49;;;;;;;4.95;4.05;;;;;;;22.60;55.16;94657.47;4945963;29;20038;-72
2021/05/28 04:23:14;;;;;;;8.20;4.03;;;;;;;22.73;54.53;94654.84;4936599;29;20043;-72
2021/05/28 04:25:40;;;;;;;12.95;4.78;;;;;;;22.87;54.74;94659.13;4930255;29;20050;-72
2021/05/28 04:28:05;;;;;;;6.90;4.00;;;;;;;22.99;54.28;94651.09;4928356;29;20035;-71
2021/05/28 04:30:31;;;;;;;6.30;3.83;;;;;;;23.14;53.61;94661.53;4930708;29;20027;-71
2021/05/28 04:32:56;;;;;;;7.53;3.63;;;;;;;23.29;53.99;94657.13;4931349;29;20057;-72
2021/05/28 04:35:21;;;;;;;5.10;3.85;;;;;;;23.41;53.09;94658.44;4933630;29;20502;-71
2021/05/28 04:37:47;;;;;;;5.88;3.90;;;;;;;23.58;52.90;94656.19;4933376;29;20084;-70
2021/05/28 04:40:13;;;;;;;5.82;3.55;;;;;;;23.74;52.64;94652.50;4936094;29;20028;-71
2021/05/28 04:42:38;;;;;;;7.97;3.70;;;;;;;23.88;52.18;94663.66;4933350;29;20114;-71
2021/05/28 04:45:05;;;;;;;5.00;3.58;;;;;;;24.02;51.70;94656.22;4939263;29;20155;-71
2021/05/28 04:47:32;;;;;;;4.72;3.60;;;;;;;24.08;51.32;94648.66;4952537;29;20035;-70
2021/05/28 04:49:57;;;;;;;4.35;3.42;;;;;;;24.27;51.39;94666.44;4912032;29;20031;-70
2021/05/28 04:52:23;;;;;;;6.05;3.83;;;;;;;24.33;50.97;94653.47;4947736;29;20102;-70
2021/05/28 04:54:48;;;;;;;5.13;3.75;;;;;;;24.56;50.48;94654.53;4915658;29;20032;-72
2021/05/28 04:57:14;;;;;;;6.18;3.35;;;;;;;24.69;50.39;94668.16;4949603;29;20742;-72
2021/05/28 04:59:39;;;;;;;3.95;3.47;;;;;;;24.83;49.89;94673.84;4910644;29;20401;-72
2021/05/28 05:02:06;;;;;;;5.05;3.60;;;;;;;24.96;50.01;94665.63;4950180;29;20081;-72
2021/05/28 05:04:31;;;;;;;4.88;3.70;;;;;;;25.06;49.31;94669.41;4928949;29;20071;-71
2021/05/28 05:06:57;;;;;;;7.35;3.78;;;;;;;25.09;49.61;94667.63;4948856;29;20054;-72
2021/05/28 05:09:22;;;;;;;4.40;3.47;;;;;;;25.30;48.77;94682.09;4935709;29;20169;-71
2021/05/28 05:11:48;;;;;;;4.55;3.88;;;;;;;25.37;49.19;94676.72;4948994;29;20027;-72
2021/05/28 05:14:13;;;;;;;6.88;3.63;;;;;;;25.46;49.07;94679.00;4919597;29;20035;-70
2021/05/28 05:16:39;;;;;;;6.35;3.50;;;;;;;25.57;48.82;94678.75;4946219;29;20039;-71
2021/05/28 05:19:04;;;;;;;6.13;3.88;;;;;;;25.73;47.94;94691.34;4934122;29;20068;-72
2021/05/28 05:21:30;;;;;;;4.05;3.58;;;;;;;25.81;48.19;94688.16;4929871;29;20016;-74
2021/05/28 05:23:55;;;;;;;4.97;3.67;;;;;;;25.90;47.69;94695.13;4926164;29;20024;-73
2021/05/28 05:26:20;;;;;;;5.88;3.88;;;;;;;26.00;47.23;94694.13;4929103;29;20012;-72
2021/05/28 05:28:46;;;;;;;6.90;3.78;;;;;;;26.00;47.52;94705.09;4926834;29;20023;-72
2021/05/28 05:31:11;;;;;;;4.30;3.13;;;;;;;26.05;46.90;94701.50;4929458;29;20420;-72
2021/05/28 05:33:37;;;;;;;5.70;3.60;;;;;;;26.16;46.92;94695.75;4926703;29;20032;-72
2021/05/28 05:36:03;;;;;;;3.42;3.13;;;;;;;26.27;47.19;94705.69;4931613;29;20035;-72
2021/05/28 05:38:28;;;;;;;5.32;3.45;;;;;;;26.37;47.03;94710.19;4927902;29;20044;-73
2021/05/28 05:40:54;;;;;;;7.45;3.45;;;;;;;26.43;46.80;94719.00;4932247;29;20079;-73
2021/05/28 05:43:19;;;;;;;4.95;3.90;;;;;;;26.53;46.84;94706.28;4926982;29;20032;-72
2021/05/28 05:45:45;;;;;;;4.65;3.30;;;;;;;26.49;46.91;94701.16;4944998;29;20031;-71
2021/05/28 05:48:10;;;;;;;6.15;3.40;;;;;;;26.52;47.11;94711.03;4943688;29;20031;-73
2021/05/28 05:50:36;;;;;;;3.70;2.90;;;;;;;26.55;46.99;94714.69;4940495;29;20058;-71
2021/05/28 05:53:01;;;;;;;5.20;3.10;;;;;;;26.61;47.07;94704.34;4938711;29;20460;-71
2021/05/28 05:55:27;;;;;;;3.55;2.80;;;;;;;26.73;46.66;94711.00;4912237;29;20031;-71
2021/05/28 05:57:52;;;;;;;4.22;2.80;;;;;;;26.80;46.37;94714.50;4930297;29;20031;-70
2021/05/28 06:00:18;;;;;;;3.65;2.78;;;;;;;26.84;45.83;94703.91;4932015;29;20265;-70
2021/05/28 06:02:43;;;;;;;4.80;2.60;;;;;;;26.84;45.77;94703.91;4927550;29;20149;-75
2021/05/28 06:05:11;;;;;;;4.50;2.60;;;;;;;26.96;45.63;94705.13;4930455;29;20552;-70
2021/05/28 06:07:36;;;;;;;2.78;2.38;;;;;;;26.88;45.34;94709.06;4928074;29;20031;-73
2021/05/28 06:10:02;;;;;;;3.20;2.35;;;;;;;26.93;45.39;94706.19;4904192;29;20524;-68
2021/05/28 06:12:28;;;;;;;4.45;2.55;;;;;;;26.84;44.59;94703.91;4923344;29;20043;-69
2021/05/28 06:14:53;;;;;;;3.80;2.47;;;;;;;26.77;44.35;94712.84;4910280;29;20574;-68
2021/05/28 06:17:18;;;;;;;4.03;2.10;;;;;;;26.69;44.15;94702.38;4930269;29;20044;-68
2021/05/28 06:19:44;;;;;;;4.78;2.33;;;;;;;26.63;44.03;94699.06;4928682;29;20031;-69
2021/05/28 06:22:09;;;;;;;3.05;2.08;;;;;;;26.63;43.56;94704.53;4931226;29;20023;-69
2021/05/28 06:24:35;;;;;;;6.20;2.58;;;;;;;26.58;43.74;94702.69;4924835;29;20031;-70
2021/05/28 06:27:00;;;;;;;4.32;2.15;;;;;;;26.32;43.88;94691.88;4930931;29;20035;-69
2021/05/28 06:29:26;;;;;;;4.13;2.28;;;;;;;26.38;43.91;94712.38;4925470;29;20023;-69
2021/05/28 06:31:51;;;;;;;3.60;2.22;;;;;;;26.18;44.39;94698.69;4931238;29;20031;-68
2021/05/28 06:34:17;;;;;;;4.70;2.15;;;;;;;26.19;44.29;94705.63;4925758;29;20059;-68
2021/05/28 06:36:42;;;;;;;3.95;2.17;;;;;;;26.15;44.94;94709.97;4930300;29;20432;-68
2021/05/28 06:39:10;;;;;;;3.15;2.05;;;;;;;26.09;45.15;94709.38;4909743;29;20721;-68
2021/05/28 06:41:36;;;;;;;2.70;1.75;;;;;;;25.98;45.11;94713.09;4932272;29;20443;-68
2021/05/28 06:44:02;;;;;;;3.42;1.75;;;;;;;25.93;45.18;94710.50;4926422;29;20028;-69
2021/05/28 06:46:27;;;;;;;4.25;1.98;;;;;;;25.88;45.07;94708.63;4931124;29;20567;-68
2021/05/28 06:48:54;;;;;;;4.10;1.95;;;;;;;25.67;45.66;94694.19;4924951;29;20039;-69
2021/05/28 06:51:19;;;;;;;4.50;2.00;;;;;;;25.70;46.27;94703.34;4910881;29;20398;-68
2021/05/28 06:53:45;;;;;;;3.78;2.13;;;;;;;25.61;46.15;94706.50;4907182;29;20135;-69
2021/05/28 06:56:10;;;;;;;3.33;2.00;;;;;;;25.64;45.52;94705.44;4928376;29;20035;-68
2021/05/28 06:58:36;;;;;;;2.90;2.00;;;;;;;25.57;45.43;94695.13;4912434;28;20051;-69
2021/05/28 07:01:02;;;;;;;3.63;1.90;;;;;;;25.52;45.98;94704.22;4935346;28;20480;-69
2021/05/28 07:03:27;;;;;;;2.80;1.95;;;;;;;25.42;46.59;94694.97;4924024;29;20111;-70
2021/05/28 07:05:53;;;;;;;2.97;2.00;;;;;;;25.37;45.79;94704.03;4927512;29;20098;-69
2021/05/28 07:08:18;;;;;;;2.15;1.70;;;;;;;25.32;46.18;94688.50;4910473;29;20031;-68
2021/05/28 07:10:44;;;;;;;3.45;1.98;;;;;;;25.30;45.92;94693.03;4934197;29;20032;-69
2021/05/28 07:13:09;;;;;;;3.03;2.08;;;;;;;25.26;46.53;94704.28;4926946;29;20158;-70
2021/05/28 07:15:37;;;;;;;3.25;1.65;;;;;;;25.24;45.65;94695.84;4924905;29;20492;-69
2021/05/28 07:18:03;;;;;;;2.40;1.90;;;;;;;25.17;45.48;94691.06;4926593;29;20127;-68
2021/05/28 07:20:29;;;;;;;4.32;2.40;;;;;;;25.05;44.97;94689.06;4928252;29;20087;-69
2021/05/28 07:22:54;;;;;;;3.58;2.00;;;;;;;25.09;45.41;94701.13;4927854;29;20043;-69
2021/05/28 07:25:19;;;;;;;3.08;1.70;;;;;;;25.01;45.21;94705.78;4929924;29;20032;-69
2021/05/28 07:27:45;;;;;;;3.38;2.40;;;;;;;24.97;45.79;94699.88;4930680;29;20031;-70
2021/05/28 07:30:11;;;;;;;3.30;2.00;;;;;;;24.95;45.94;94702.41;4930588;29;20032;-68
2021/05/28 07:32:37;;;;;;;3.13;1.65;;;;;;;24.91;45.13;94701.97;4930555;29;20036;-68
2021/05/28 07:35:03;;;;;;;3.15;2.10;;;;;;;24.91;45.16;94701.25;4930584;29;20531;-69
2021/05/28 07:37:29;;;;;;;4.72;2.72;;;;;;;24.88;45.16;94719.41;4930220;29;20503;-67
2021/05/28 07:39:55;;;;;;;3.38;2.15;;;;;;;24.81;45.11;94707.66;4913505;29;20020;-68
2021/05/28 07:42:20;;;;;;;3.97;2.70;;;;;;;24.82;44.97;94710.59;4929534;29;20038;-68
2021/05/28 07:44:46;;;;;;;5.72;2.78;;;;;;;24.79;45.20;94716.38;4930830;29;20028;-69
2021/05/28 07:47:12;;;;;;;4.18;2.30;;;;;;;24.72;45.38;94716.28;4930235;29;20027;-69
2021/05/28 07:49:39;;;;;;;5.78;3.13;;;;;;;24.70;45.70;94724.25;4928560;29;20055;-69
2021/05/28 07:52:05;;;;;;;4.40;3.40;;;;;;;24.66;45.75;94729.28;4944832;29;20035;-68
2021/05/28 07:54:30;;;;;;;5.15;2.90;;;;;;;24.51;45.35;94729.06;4929726;29;20058;-70
2021/05/28 07:56:55;;;;;;;5.68;3.13;;;;;;;24.58;45.92;94729.19;4910159;29;20095;-68
2021/05/28 07:59:21;;;;;;;4.38;3.13;;;;;;;24.53;45.62;94721.84;4911404;29;20025;-69
2021/05/28 08:01:46;;;;;;;6.43;3.20;;;;;;;24.50;45.51;94727.63;4911548;29;20031;-69
2021/05/28 08:04:12;;;;;;;6.93;3.30;;;;;;;24.46;45.61;94738.09;4940512;29;20639;-69
2021/05/28 08:06:37;;;;;;;5.53;3.20;;;;;;;24.42;45.52;94740.38;4935673;29;20119;-67
2021/05/28 08:09:03;;;;;;;6.82;3.45;;;;;;;24.40;46.08;94745.66;4930430;29;20035;-69
2021/05/28 08:11:28;;;;;;;6.88;3.50;;;;;;;24.39;46.47;94741.44;4930623;29;20031;-69
2021/05/28 08:13:54;;;;;;;5.45;3.03;;;;;;;24.37;46.14;94749.41;4930415;29;20035;-68
2021/05/28 08:16:19;;;;;;;3.70;2.72;;;;;;;24.34;45.82;94747.72;4931481;29;20024;-69
2021/05/28 08:18:45;;;;;;;4.57;2.90;;;;;;;24.32;46.30;94750.22;4912773;29;20535;-69
2021/05/28 08:21:11;;;;;;;4.15;3.38;;;;;;;24.31;46.38;94754.19;4930375;29;20031;-68
2021/05/28 08:23:37;;;;;;;3.92;2.72;;;;;;;24.26;46.46;94768.69;4943405;29;20035;-69
2021/05/28 08:26:03;;;;;;;3.88;3.47;;;;;;;24.23;46.64;94775.19;4930957;29;20166;-69
2021/05/28 08:28:30;;;;;;;7.70;3.72;;;;;;;24.21;46.44;94783.13;4930556;29;20467;-68
2021/05/28 08:30:55;;;;;;;4.70;3.72;;;;;;;24.20;46.14;94808.97;4930040;29;20039;-68
2021/05/28 08:33:21;;;;;;;6.78;3.95;;;;;;;24.13;46.21;94809.56;4931134;29;20059;-68
2021/05/28 08:35:46;;;;;;;9.18;4.55;;;;;;;24.08;45.92;94817.81;4929837;29;20024;-66
2021/05/28 08:38:12;;;;;;;12.82;4.85;;;;;;;24.05;45.79;94830.50;4930901;29;20114;-68
2021/05/28 08:40:38;;;;;;;7.38;5.05;;;;;;;23.98;45.54;94814.72;4913945;29;20107;-67
2021/05/28 08:43:04;;;;;;;9.82;6.57;;;;;;;23.93;44.76;94823.75;4931535;29;20047;-68
2021/05/28 08:45:36;;;;;;;9.80;6.60;;;;;;;23.83;45.15;94826.63;4931344;29;20024;-68
2021/05/28 08:48:03;;;;;;;8.85;7.18;;;;;;;23.80;44.45;94824.94;4940618;29;20034;-66
2021/05/28 08:50:28;;;;;;;10.25;6.88;;;;;;;23.73;44.42;94852.78;4939541;29;20437;-66
2021/05/28 08:52:54;;;;;;;9.13;7.22;;;;;;;23.71;44.61;94844.38;4948614;29;20045;-66
2021/05/28 08:55:19;;;;;;;12.88;7.50;;;;;;;23.67;44.78;94860.28;4928620;29;20094;-67
2021/05/28 08:57:45;;;;;;;13.55;7.57;;;;;;;23.65;44.85;94857.34;4929205;29;20019;-66
2021/05/28 09:00:11;;;;;;;10.10;7.68;;;;;;;23.60;45.47;94866.28;4929967;29;20115;-67
2021/05/28 09:02:38;;;;;;;8.55;7.07;;;;;;;23.57;45.45;94867.31;4935677;28;20107;-67
2021/05/28 09:05:08;;;;;;;9.32;7.22;;;;;;;23.58;46.32;94874.25;4924168;29;20043;-67
2021/05/28 09:07:33;;;;;;;8.82;7.40;;;;;;;23.53;46.22;94888.69;4912228;29;20500;-67
2021/05/28 09:09:59;;;;;;;9.00;7.47;;;;;;;23.48;46.71;94892.19;4911921;29;20052;-67
2021/05/28 09:12:27;;;;;;;7.82;6.82;;;;;;;23.47;47.04;94896.19;4926326;29;20034;-67
2021/05/28 09:14:53;;;;;;;7.50;6.72;;;;;;;23.46;46.88;94891.97;4912608;29;20813;-68
2021/05/28 09:17:18;;;;;;;8.35;7.00;;;;;;;23.41;47.26;94892.78;4911772;29;20031;-67
2021/05/28 09:19:56;;;;;;;13.13;6.97;;;;;;;23.40;47.24;94902.19;4911029;29;20028;-68
2021/05/28 09:22:30;;;;;;;10.75;7.80;;;;;;;23.28;47.46;94889.94;4895854;29;20036;-67
2021/05/28 09:24:56;;;;;;;8.85;7.25;;;;;;;23.21;47.66;94885.06;4882274;29;20488;-67
2021/05/28 09:27:29;;;;;;;9.77;7.47;;;;;;;23.29;47.47;94901.56;4912611;29;20036;-67
2021/05/28 09:30:11;;;;;;;8.50;7.70;;;;;;;23.21;47.71;94906.84;4896430;29;20043;-67
2021/05/28 09:32:39;;;;;;;8.18;7.30;;;;;;;23.07;47.84;94896.34;4906510;29;20563;-67
2021/05/28 09:35:08;;;;;;;8.35;7.55;;;;;;;23.14;47.99;94912.88;4916188;29;20027;-68
2021/05/28 09:37:40;;;;;;;8.90;8.10;;;;;;;22.98;48.07;94905.59;4927170;29;20042;-66
2021/05/28 09:40:07;;;;;;;9.85;8.88;;;;;;;23.05;48.03;94904.31;4906591;29;20042;-67
2021/05/28 09:42:58;;;;;;;7.80;7.05;;;;;;;23.03;48.29;94907.53;4932257;29;20091;-70
2021/05/28 09:45:24;;;;;;;7.63;6.75;;;;;;;23.15;48.36;94898.03;4931184;29;20427;-69
2021/05/28 09:47:49;;;;;;;7.43;6.60;;;;;;;23.25;48.55;94895.69;4916623;29;20100;-69
2021/05/28 09:50:15;;;;;;;7.43;6.28;;;;;;;23.31;48.84;94894.38;4895778;29;20312;-69
2021/05/28 09:52:40;;;;;;;6.53;5.90;;;;;;;23.18;48.45;94886.06;4912883;29;20036;-70
2021/05/28 09:55:06;;;;;;;7.03;6.32;;;;;;;23.43;48.77;94901.19;4904641;29;20031;-70
2021/05/28 09:57:34;;;;;;;6.82;6.15;;;;;;;23.47;48.96;94910.53;4940331;29;20443;-70
2021/05/28 10:00:00;;;;;;;6.53;5.93;;;;;;;23.50;48.86;94898.63;4930096;29;20376;-70
2021/05/28 10:02:34;;;;;;;7.13;6.38;;;;;;;23.45;48.97;94888.53;4931823;29;20062;-69
2021/05/28 10:04:59;;;;;;;7.72;6.40;;;;;;;23.59;48.81;94897.53;4914528;29;20058;-68
2021/05/28 10:07:26;;;;;;;8.10;5.70;;;;;;;23.56;48.74;94887.66;4931328;29;20023;-69
2021/05/28 10:09:55;;;;;;;6.60;5.70;;;;;;;23.65;48.85;94895.53;4914512;29;20094;-69
2021/05/28 10:12:21;;;;;;;6.80;6.15;;;;;;;23.68;48.74;94905.41;4930950;29;20032;-70
2021/05/28 10:14:49;;;;;;;8.13;6.18;;;;;;;23.70;48.74;94897.44;4930190;29;20032;-71
2021/05/28 10:17:14;;;;;;;6.72;6.03;;;;;;;23.73;48.70;94896.41;4927873;29;20023;-72
2021/05/28 10:19:40;;;;;;;7.28;6.50;;;;;;;23.78;49.10;94903.78;4904474;29;20029;-73
2021/05/28 10:22:06;;;;;;;7.03;5.72;;;;;;;23.80;49.36;94907.47;4912016;29;20082;-69
2021/05/28 10:24:31;;;;;;;8.50;5.95;;;;;;;23.84;49.34;94890.81;4910453;29;20476;-68
2021/05/28 10:26:56;;;;;;;7.13;5.78;;;;;;;23.86;49.02;94893.78;4926687;29;20494;-69
2021/05/28 10:29:26;;;;;;;6.78;5.95;;;;;;;23.89;49.38;94891.47;4927943;29;20160;-70
2021/05/28 10:31:58;;;;;;;6.05;5.45;;;;;;;23.94;48.96;94885.19;4920196;29;20075;-74
2021/05/28 10:34:25;;;;;;;7.20;5.55;;;;;;;24.01;49.10;94901.00;4927448;29;20699;-70
2021/05/28 10:36:50;;;;;;;6.03;5.43;;;;;;;23.98;48.83;94898.56;4930756;29;20405;-71
2021/05/28 10:39:17;;;;;;;9.10;5.60;;;;;;;24.11;48.66;94893.94;4942933;28;20091;-72
2021/05/28 10:41:55;;;;;;;6.65;5.18;;;;;;;24.28;48.43;94896.44;4922802;29;20028;-70
2021/05/28 10:44:22;;;;;;;7.50;5.65;;;;;;;24.20;48.62;94884.59;4925946;29;20091;-70
2021/05/28 10:46:56;;;;;;;6.20;5.30;;;;;;;24.31;48.25;94868.81;4911699;29;20035;-70
2021/05/28 10:49:42;;;;;;;8.13;5.53;;;;;;;24.63;48.09;94900.34;4910352;29;20043;-70
2021/05/28 10:52:09;;;;;;;7.75;5.38;;;;;;;24.74;47.24;94900.22;4923811;29;20434;-72
2021/05/28 10:54:36;;;;;;;5.57;5.00;;;;;;;24.83;47.40;94892.34;4906622;29;20031;-69
2021/05/28 10:57:28;;;;;;;6.28;5.35;;;;;;;24.96;46.74;94895.13;4899318;29;20070;-70
2021/05/28 11:00:03;;;;;;;5.95;5.35;;;;;;;25.09;46.83;94903.34;4927447;29;20031;-69
2021/05/28 11:02:44;;;;;;;6.45;4.72;;;;;;;25.17;46.54;94904.22;4892458;29;20039;-70
2021/05/28 11:05:09;;;;;;;5.28;4.78;;;;;;;25.25;46.81;94899.59;4922237;29;20024;-70
2021/05/28 11:07:35;;;;;;;5.65;4.72;;;;;;;25.31;45.90;94896.78;4930161;29;20095;-70
2021/05/28 11:10:24;;;;;;;5.78;4.72;;;;;;;25.38;45.58;94899.59;4906107;29;20027;-70
2021/05/28 11:12:50;;;;;;;5.40;4.90;;;;;;;25.25;45.68;94883.22;4938053;29;20094;-70
2021/05/28 11:15:23;;;;;;;5.78;4.85;;;;;;;25.43;46.31;94902.25;4938952;29;20437;-70
2021/05/28 11:17:54;;;;;;;5.85;4.95;;;;;;;25.42;45.90;94898.03;4912923;29;20506;-72
2021/05/28 11:20:24;;;;;;;5.95;4.72;;;;;;;25.42;45.87;94897.28;4922242;29;20609;-69
2021/05/28 11:22:49;;;;;;;6.75;4.65;;;;;;;25.41;46.34;94906.75;4927534;29;20430;-69
2021/05/28 11:25:17;;;;;;;7.00;4.57;;;;;;;25.39;45.94;94901.09;4925192;29;20043;-69
2021/05/28 11:27:45;;;;;;;5.55;4.95;;;;;;;25.34;45.98;94918.34;4930513;29;20452;-69
2021/05/28 11:30:10;;;;;;;6.55;4.72;;;;;;;25.38;46.40;94913.25;4941149;29;20055;-69
2021/05/28 11:32:45;;;;;;;5.00;4.50;;;;;;;25.35;45.85;94909.59;4927738;29;20044;-70